Historique des mesures à Cassis (13260), France
Quotidien Résumé Janvier 13, 2017 Unités:  US    Métrique   Métrique/US
« Précédent (Jour)
Suivant (Jour) »
Quotidien Hebdomadaire Mensuel Annuel Période au choix
  Maximum: Minimum: Moyenne:
Température: 32 °F 41.9 °F 47.8 °F
Point de rosée: 32 °F 24.1 °F 32.2 °F
Humidité: Humidity % 39 % 52 %
Vitesse du vent: WindSpeedKMH mph 0.0 mph 12.6 mph
Rafales: WindSpeedGustKMH mph - -
Vent:- - SSW
Pression: 0 in 29.7 in -
Précipitations: 0 in    
Historical Graphs
 
 
Mesures pour : Janvier 13, 2017
Heure Temperature Point de rosée Pression Vent Vitesse du vent Rafales Humidité Pluie (par heure) Conditions
32 °F 32 °F 0 in Calm     Humidity % 0 in SoftwareType W/m2
00:11 54.7 °F 47.1 °F 29.8 in Calm     76 % 0 in open2300-1.11 W/m2
01:10 55.2 °F 48 °F 29.7 in West 4.0 mph 4.0 mph 77 % 0 in open2300-1.11 W/m2
02:11 55.9 °F 49.1 °F 29.7 in WNW 5.0 mph 11.9 mph 78 % 0 in open2300-1.11 W/m2
03:10 54.9 °F 42.8 °F 29.7 in NW 18.3 mph 18.3 mph 64 % 0 in open2300-1.11 W/m2
04:11 53.4 °F 37.6 °F 29.7 in NNW 4.7 mph 16.6 mph 55 % 0 in open2300-1.11 W/m2
05:10 51.6 °F 35.4 °F 29.7 in WNW 35.6 mph 35.6 mph 54 % 0 in open2300-1.11 W/m2
06:11 50.4 °F 35.2 °F 29.7 in NW 17.2 mph 17.2 mph 56 % 0 in open2300-1.11 W/m2
07:10 49.3 °F 34.7 °F 29.7 in WNW 14.3 mph 15.4 mph 57 % 0 in open2300-1.11 W/m2
08:11 48.4 °F 33.3 °F 29.7 in North 8.2 mph 16.9 mph 56 % 0 in open2300-1.11 W/m2
09:10 46.8 °F 29.1 °F 29.7 in NNW 14.8 mph 28.2 mph 50 % 0 in open2300-1.11 W/m2
10:11 46.6 °F 30.7 °F 29.7 in NNE 15.4 mph 15.4 mph 54 % 0 in open2300-1.11 W/m2
11:10 46.9 °F 28.2 °F 29.7 in NNE 1.8 mph 16.9 mph 48 % 0 in open2300-1.11 W/m2
12:11 47.1 °F 24.4 °F 29.7 in NW 4.7 mph 25.3 mph 41 % 0 in open2300-1.11 W/m2
13:10 47.8 °F 24.1 °F 29.7 in North 16.9 mph 20.9 mph 39 % 0 in open2300-1.11 W/m2
14:11 48.9 °F 25.5 °F 29.7 in Calm   29.1 mph 40 % 0 in open2300-1.11 W/m2
15:10 48.7 °F 25.5 °F 29.7 in WNW 14.8 mph 16.6 mph 40 % 0 in open2300-1.11 W/m2
16:11 48.9 °F 27.3 °F 29.7 in North 28.5 mph 28.5 mph 43 % 0 in open2300-1.11 W/m2
17:10 48.2 °F 27.7 °F 29.7 in WNW 9.7 mph 39.6 mph 45 % 0 in open2300-1.11 W/m2
18:11 46.2 °F 29.5 °F 29.8 in NNE 13.0 mph 15.8 mph 52 % 0 in open2300-1.11 W/m2
19:10 43.3 °F 29.5 °F 29.8 in NNE 12.6 mph 21.9 mph 58 % 0 in open2300-1.11 W/m2
20:11 42.1 °F 29.1 °F 29.8 in NW 22.4 mph 22.4 mph 60 % 0 in open2300-1.11 W/m2
21:10 41.9 °F 28 °F 29.9 in North 5.8 mph 8.2 mph 58 % 0 in open2300-1.11 W/m2
22:11 41.9 °F 25.9 °F 29.9 in WNW 26.2 mph 26.2 mph 53 % 0 in open2300-1.11 W/m2
23:10 42.6 °F 25.3 °F 29.9 in NW 20.9 mph 20.9 mph 50 % 0 in open2300-1.11 W/m2
Observations météo à CASSIS
WU-History script by Weather Underground - 1 mb